Time;durP1;ratioP1;P1;durP2;ratioP2;P2;SDS_P1;SDS_P2;PMS_P1;PMS_P2;Temp;Humidity;BMP_temperature;BMP_pressure;BME280_temperature;BME280_humidity;BME280_pressure;Samples;Min_cycle;Max_cycle;Signal;HPM_P1;HPM_P2
2022/04/10 00:00:55;;;;;;;4.03;3.28;;;2.50;99.90;;;;;;5073367;28;20603;-69
2022/04/10 00:03:22;;;;;;;4.03;3.20;;;2.50;99.90;;;;;;5068360;28;20212;-68
2022/04/10 00:05:51;;;;;;;3.58;3.28;;;2.50;99.90;;;;;;5052165;28;20892;-69
2022/04/10 00:08:18;;;;;;;5.68;3.38;;;2.50;99.90;;;;;;5052631;28;20201;-69
2022/04/10 00:10:44;;;;;;;4.68;3.80;;;2.50;99.90;;;;;;5052798;28;20212;-69
2022/04/10 00:13:12;;;;;;;4.68;3.70;;;2.50;99.90;;;;;;5052554;28;20582;-69
2022/04/10 00:15:39;;;;;;;4.57;3.22;;;2.60;99.90;;;;;;5052733;28;20625;-68
2022/04/10 00:18:07;;;;;;;7.03;3.88;;;2.60;99.90;;;;;;5051949;28;20827;-69
2022/04/10 00:20:33;;;;;;;6.20;3.80;;;2.60;99.90;;;;;;5052974;28;20201;-68
2022/04/10 00:23:01;;;;;;;7.75;3.40;;;2.70;99.90;;;;;;5052845;28;20225;-69
2022/04/10 00:25:28;;;;;;;3.53;2.70;;;2.70;99.90;;;;;;5052407;28;20664;-69
2022/04/10 00:27:55;;;;;;;3.95;3.40;;;2.70;99.90;;;;;;5052581;28;20204;-69
2022/04/10 00:30:22;;;;;;;5.35;3.30;;;2.70;99.90;;;;;;5052843;28;20209;-69
2022/04/10 00:32:48;;;;;;;4.00;3.30;;;2.80;99.90;;;;;;5033300;28;20198;-69
2022/04/10 00:35:15;;;;;;;4.05;3.25;;;2.70;99.90;;;;;;5033383;28;20212;-69
2022/04/10 00:37:42;;;;;;;3.42;3.13;;;2.80;99.90;;;;;;5032251;28;20222;-69
2022/04/10 00:40:11;;;;;;;7.10;3.30;;;2.70;99.90;;;;;;5033225;28;20212;-68
2022/04/10 00:42:39;;;;;;;5.30;3.38;;;2.80;99.90;;;;;;5032583;28;20221;-69
2022/04/10 00:45:07;;;;;;;4.72;3.75;;;2.80;99.90;;;;;;5032934;28;20206;-69
2022/04/10 00:47:34;;;;;;;5.78;3.50;;;2.80;99.90;;;;;;5031660;28;20226;-69
2022/04/10 00:50:04;;;;;;;5.03;3.25;;;2.80;99.90;;;;;;5032339;28;20216;-69
2022/04/10 00:52:31;;;;;;;5.35;3.80;;;2.80;99.90;;;;;;5032472;28;20197;-69
2022/04/10 00:54:58;;;;;;;7.43;3.53;;;2.90;99.90;;;;;;5031793;28;20206;-69
2022/04/10 00:57:26;;;;;;;5.30;3.30;;;2.80;99.90;;;;;;5031768;28;20221;-69
2022/04/10 00:59:54;;;;;;;11.80;4.25;;;2.90;99.90;;;;;;5032235;28;20210;-68
2022/04/10 01:02:21;;;;;;;4.30;3.05;;;2.80;99.90;;;;;;5032080;28;20229;-69
2022/04/10 01:04:47;;;;;;;6.68;4.80;;;2.90;99.90;;;;;;5032726;28;20209;-69
2022/04/10 01:07:17;;;;;;;4.03;3.35;;;2.90;99.90;;;;;;5031644;28;20320;-69
2022/04/10 01:09:44;;;;;;;5.00;3.55;;;2.90;99.90;;;;;;5032009;28;20209;-69
2022/04/10 01:12:12;;;;;;;4.18;2.97;;;2.90;99.90;;;;;;5032153;28;20213;-69
2022/04/10 01:14:41;;;;;;;4.45;3.53;;;2.90;99.90;;;;;;5031812;28;20217;-69
2022/04/10 01:17:08;;;;;;;6.05;3.17;;;2.80;99.90;;;;;;5047789;28;20221;-69
2022/04/10 01:19:37;;;;;;;6.32;3.25;;;2.80;99.90;;;;;;5050974;28;20209;-69
2022/04/10 01:22:06;;;;;;;8.18;3.70;;;2.70;99.90;;;;;;5051494;28;20221;-69
2022/04/10 01:24:36;;;;;;;7.50;3.47;;;2.60;99.90;;;;;;5051527;28;20209;-68
2022/04/10 01:27:03;;;;;;;4.90;2.88;;;2.60;99.90;;;;;;5050980;28;20216;-69
2022/04/10 01:29:30;;;;;;;3.70;3.05;;;2.60;99.90;;;;;;5051710;28;20236;-68
2022/04/10 01:31:57;;;;;;;4.88;3.25;;;2.70;99.90;;;;;;5052284;28;20199;-69
2022/04/10 01:34:24;;;;;;;6.38;3.00;;;2.70;99.90;;;;;;5050242;28;20212;-69
2022/04/10 01:36:51;;;;;;;3.70;3.40;;;2.60;99.90;;;;;;5050712;28;20229;-68
2022/04/10 01:39:18;;;;;;;4.30;3.65;;;2.60;99.90;;;;;;5051401;28;20220;-68
2022/04/10 01:41:46;;;;;;;5.72;4.03;;;2.60;99.90;;;;;;5051337;28;20212;-69
2022/04/10 01:44:13;;;;;;;5.25;4.18;;;2.60;99.90;;;;;;5051126;28;20329;-68
2022/04/10 01:46:40;;;;;;;5.63;3.65;;;2.60;99.90;;;;;;5050606;28;20228;-69
2022/04/10 01:49:08;;;;;;;3.95;3.55;;;2.50;99.90;;;;;;5051304;28;20201;-70
2022/04/10 01:51:35;;;;;;;8.80;4.10;;;2.50;99.90;;;;;;5050971;28;20201;-68
2022/04/10 01:54:02;;;;;;;5.45;3.90;;;2.50;99.90;;;;;;5051430;28;20212;-69
2022/04/10 01:56:29;;;;;;;5.93;3.42;;;2.60;99.90;;;;;;5050702;28;20217;-69
2022/04/10 01:58:57;;;;;;;9.57;3.70;;;2.60;99.90;;;;;;5050166;28;20209;-68
2022/04/10 02:01:24;;;;;;;5.85;4.03;;;2.50;99.90;;;;;;5050974;28;20669;-68
2022/04/10 02:03:51;;;;;;;5.40;4.63;;;2.50;99.90;;;;;;5050874;28;20229;-68
2022/04/10 02:06:18;;;;;;;5.10;3.05;;;2.50;99.90;;;;;;5050942;28;20221;-68
2022/04/10 02:08:45;;;;;;;3.97;3.47;;;2.50;99.90;;;;;;5050048;28;20205;-68
2022/04/10 02:11:13;;;;;;;4.30;3.50;;;2.40;99.90;;;;;;5050859;28;20221;-69
2022/04/10 02:13:41;;;;;;;4.95;4.07;;;2.40;99.90;;;;;;5050460;28;20315;-69
2022/04/10 02:16:12;;;;;;;5.80;4.00;;;2.40;99.90;;;;;;5051109;28;20573;-69
2022/04/10 02:18:39;;;;;;;6.20;3.80;;;2.30;99.90;;;;;;5050347;28;20201;-69
2022/04/10 02:21:06;;;;;;;5.40;3.85;;;2.30;99.90;;;;;;5050711;28;20211;-69
2022/04/10 02:23:33;;;;;;;4.75;3.83;;;2.30;99.90;;;;;;5050715;28;20764;-69
2022/04/10 02:26:00;;;;;;;4.47;3.75;;;2.30;99.90;;;;;;5050596;28;20763;-69
2022/04/10 02:28:27;;;;;;;4.70;3.75;;;2.30;99.90;;;;;;5049082;28;20208;-69
2022/04/10 02:30:53;;;;;;;6.05;3.60;;;2.30;99.90;;;;;;5050628;28;20248;-69
2022/04/10 02:33:21;;;;;;;5.28;4.03;;;2.20;99.90;;;;;;5050413;28;20208;-69
2022/04/10 02:35:48;;;;;;;7.68;3.42;;;2.20;99.90;;;;;;5050357;28;20225;-69
2022/04/10 02:38:16;;;;;;;4.18;3.42;;;2.20;99.90;;;;;;5049750;28;20217;-69
2022/04/10 02:40:43;;;;;;;4.47;3.67;;;2.20;99.90;;;;;;5050246;28;20232;-69
2022/04/10 02:43:13;;;;;;;4.15;3.75;;;2.20;99.90;;;;;;5050566;28;20255;-69
2022/04/10 02:45:40;;;;;;;5.80;4.35;;;2.20;99.90;;;;;;5048222;28;20197;-69
2022/04/10 02:48:07;;;;;;;4.35;3.42;;;2.10;99.90;;;;;;5049954;28;20561;-69
2022/04/10 02:50:35;;;;;;;6.78;3.90;;;2.10;99.90;;;;;;5050042;28;20201;-68
2022/04/10 02:53:02;;;;;;;7.47;3.60;;;2.10;99.90;;;;;;5050516;28;20197;-69
2022/04/10 02:55:29;;;;;;;4.35;3.65;;;2.10;99.90;;;;;;5050206;28;20201;-69
2022/04/10 02:57:55;;;;;;;3.63;3.30;;;2.00;99.90;;;;;;5049366;28;20204;-69
2022/04/10 03:00:22;;;;;;;5.28;4.05;;;2.00;99.90;;;;;;5132643;22;20220;-73
2022/04/10 03:02:49;;;;;;;5.32;4.03;;;1.90;99.90;;;;;;5069684;28;20891;-73
2022/04/10 03:05:16;;;;;;;4.35;3.55;;;1.90;99.90;;;;;;5071254;28;20569;-73
2022/04/10 03:07:44;;;;;;;4.15;3.35;;;1.90;99.90;;;;;;5049871;28;20224;-72
2022/04/10 03:10:11;;;;;;;5.53;4.75;;;1.80;99.90;;;;;;5050503;28;20223;-73
2022/04/10 03:12:37;;;;;;;5.88;3.63;;;1.80;99.90;;;;;;5053484;28;20197;-72
2022/04/10 03:15:05;;;;;;;3.70;3.40;;;1.90;99.90;;;;;;5053944;28;20201;-73
2022/04/10 03:17:32;;;;;;;4.65;3.65;;;1.80;99.90;;;;;;5053433;28;20221;-73
2022/04/10 03:19:59;;;;;;;4.30;3.75;;;1.80;99.90;;;;;;5054255;28;20204;-73
2022/04/10 03:22:25;;;;;;;5.82;3.55;;;1.70;99.90;;;;;;5051776;28;20564;-71
2022/04/10 03:24:53;;;;;;;4.82;3.83;;;1.70;99.90;;;;;;5054148;28;20215;-72
2022/04/10 03:27:20;;;;;;;5.10;4.15;;;1.60;99.90;;;;;;5053280;28;20228;-72
2022/04/10 03:29:47;;;;;;;4.35;3.95;;;1.60;99.90;;;;;;5054115;28;20216;-72
2022/04/10 03:32:13;;;;;;;4.35;3.85;;;1.50;99.90;;;;;;5054314;28;20201;-73
2022/04/10 03:34:40;;;;;;;5.35;3.78;;;1.40;99.90;;;;;;5053448;28;20200;-72
2022/04/10 03:37:07;;;;;;;5.90;4.13;;;1.30;99.90;;;;;;5053270;28;20704;-73
2022/04/10 03:39:34;;;;;;;4.30;3.83;;;1.30;99.90;;;;;;5052883;28;20580;-72
2022/04/10 03:42:02;;;;;;;5.45;3.63;;;1.30;99.90;;;;;;5054071;28;20220;-72
2022/04/10 03:44:28;;;;;;;5.55;3.75;;;1.20;99.90;;;;;;5053692;28;20232;-73
2022/04/10 03:46:55;;;;;;;5.43;3.70;;;1.10;99.90;;;;;;5052768;28;20221;-73
2022/04/10 03:49:22;;;;;;;4.32;3.53;;;1.10;99.90;;;;;;5053698;28;20668;-71
2022/04/10 03:51:48;;;;;;;4.90;4.43;;;1.00;99.90;;;;;;5053148;28;20201;-71
2022/04/10 03:54:15;;;;;;;4.07;3.60;;;1.00;99.90;;;;;;5053821;28;20197;-72
2022/04/10 03:56:42;;;;;;;5.10;4.35;;;0.90;99.90;;;;;;5052867;28;20221;-72
2022/04/10 03:59:10;;;;;;;5.00;4.40;;;0.90;99.90;;;;;;5033409;28;20217;-72
2022/04/10 04:01:37;;;;;;;6.40;4.57;;;0.90;99.90;;;;;;5033581;28;20201;-72
2022/04/10 04:04:04;;;;;;;6.90;4.97;;;0.90;99.90;;;;;;5033152;28;20225;-72
2022/04/10 04:06:31;;;;;;;5.88;4.30;;;0.90;99.90;;;;;;5033228;28;20226;-72
2022/04/10 04:08:57;;;;;;;4.70;4.18;;;0.80;99.90;;;;;;5033131;28;20206;-72
2022/04/10 04:11:24;;;;;;;6.78;5.10;;;0.80;99.90;;;;;;5033155;28;20204;-72
2022/04/10 04:13:51;;;;;;;6.55;5.63;;;0.80;99.90;;;;;;5033247;28;20201;-72
2022/04/10 04:16:19;;;;;;;6.35;5.57;;;0.90;99.90;;;;;;5042476;28;20221;-72
2022/04/10 04:18:45;;;;;;;6.63;5.28;;;0.90;99.90;;;;;;5052462;28;20220;-73
2022/04/10 04:21:12;;;;;;;5.30;4.80;;;0.90;99.90;;;;;;5053237;28;20201;-73
2022/04/10 04:23:39;;;;;;;8.05;5.70;;;0.90;99.90;;;;;;5052723;28;20228;-73
2022/04/10 04:26:06;;;;;;;7.63;6.68;;;1.00;99.90;;;;;;5053070;28;20751;-73
2022/04/10 04:28:36;;;;;;;6.00;5.40;;;0.90;99.90;;;;;;5052469;28;20296;-73
2022/04/10 04:31:02;;;;;;;10.70;5.70;;;0.90;99.90;;;;;;5053222;28;20211;-73
2022/04/10 04:33:30;;;;;;;6.30;5.70;;;1.00;99.90;;;;;;5052805;28;20670;-73
2022/04/10 04:35:57;;;;;;;7.10;6.40;;;1.00;99.90;;;;;;5052429;28;20221;-73
2022/04/10 04:38:24;;;;;;;8.65;5.43;;;1.00;99.90;;;;;;5052222;28;20204;-72
2022/04/10 04:40:50;;;;;;;7.05;6.10;;;1.10;99.90;;;;;;5052107;28;20588;-74
2022/04/10 04:43:17;;;;;;;6.38;5.00;;;1.10;99.90;;;;;;5052307;28;20221;-73
2022/04/10 04:45:44;;;;;;;6.35;5.25;;;1.20;99.90;;;;;;5052331;28;20225;-72
2022/04/10 04:48:10;;;;;;;6.18;5.25;;;1.30;99.90;;;;;;5051762;28;20208;-72
2022/04/10 04:50:38;;;;;;;7.13;5.45;;;1.30;99.90;;;;;;5052180;28;20201;-72
2022/04/10 04:53:05;;;;;;;6.55;5.90;;;1.40;99.90;;;;;;5051406;28;20197;-71
2022/04/10 04:55:32;;;;;;;7.47;5.25;;;1.40;99.90;;;;;;5052169;28;20204;-72
2022/04/10 04:57:59;;;;;;;6.50;5.85;;;1.50;99.90;;;;;;5052171;28;20197;-72
2022/04/10 05:00:25;;;;;;;6.30;5.68;;;1.60;99.90;;;;;;5051990;28;20217;-72
2022/04/10 05:02:52;;;;;;;7.05;5.93;;;1.70;99.90;;;;;;5051957;28;20209;-72
2022/04/10 05:05:19;;;;;;;6.15;5.55;;;1.80;99.90;;;;;;5051769;28;20201;-72
2022/04/10 05:07:47;;;;;;;6.15;5.55;;;1.90;99.90;;;;;;5051465;28;20217;-72
2022/04/10 05:10:14;;;;;;;7.15;6.15;;;2.00;99.90;;;;;;5052386;28;20201;-72
2022/04/10 05:12:40;;;;;;;5.38;4.88;;;2.00;99.90;;;;;;5051493;28;20208;-72
2022/04/10 05:15:08;;;;;;;6.05;5.45;;;2.10;99.90;;;;;;5050632;28;20200;-72
2022/04/10 05:17:36;;;;;;;6.47;5.32;;;2.20;99.90;;;;;;5050090;28;20696;-70
2022/04/10 05:20:05;;;;;;;5.57;4.97;;;2.30;99.90;;;;;;5050918;28;20205;-73
2022/04/10 05:22:31;;;;;;;7.70;5.50;;;2.40;99.90;;;;;;5050309;28;20237;-72
2022/04/10 05:25:00;;;;;;;5.13;4.72;;;2.40;99.90;;;;;;5050526;28;20228;-73
2022/04/10 05:27:26;;;;;;;6.05;5.18;;;2.50;99.90;;;;;;5050526;28;20221;-72
2022/04/10 05:29:53;;;;;;;6.88;5.45;;;2.50;99.90;;;;;;5050067;28;20209;-72
2022/04/10 05:32:20;;;;;;;5.07;4.57;;;2.50;99.90;;;;;;5050524;28;20205;-72
2022/04/10 05:34:47;;;;;;;6.18;5.55;;;2.60;99.90;;;;;;5050073;28;20204;-72
2022/04/10 05:37:13;;;;;;;5.40;4.90;;;2.70;99.90;;;;;;5049643;28;20228;-71
2022/04/10 05:39:42;;;;;;;5.80;5.13;;;2.70;99.90;;;;;;5050553;28;20359;-72
2022/04/10 05:42:11;;;;;;;5.78;5.03;;;2.80;99.90;;;;;;5050417;28;20274;-72
2022/04/10 05:44:37;;;;;;;6.82;5.60;;;2.80;99.90;;;;;;5049611;28;20225;-71
2022/04/10 05:47:05;;;;;;;4.90;4.50;;;2.90;99.90;;;;;;5049966;28;20228;-71
2022/04/10 05:49:32;;;;;;;5.45;4.68;;;2.90;99.90;;;;;;5050305;28;20299;-72
2022/04/10 05:51:58;;;;;;;7.28;4.75;;;3.00;99.90;;;;;;5050261;28;20224;-73
2022/04/10 05:54:25;;;;;;;7.03;4.57;;;3.00;99.90;;;;;;5050122;28;20569;-73
2022/04/10 05:56:52;;;;;;;5.20;4.70;;;3.10;99.90;;;;;;5049132;28;20227;-73
2022/04/10 05:59:21;;;;;;;7.05;4.90;;;3.10;99.90;;;;;;5050172;28;20209;-73
2022/04/10 06:01:47;;;;;;;5.18;4.65;;;3.20;99.90;;;;;;5049284;28;20202;-73
2022/04/10 06:04:14;;;;;;;5.25;4.63;;;3.30;99.90;;;;;;5050321;28;20746;-73
2022/04/10 06:06:41;;;;;;;4.43;4.03;;;3.30;99.90;;;;;;5048508;28;20325;-74
2022/04/10 06:09:08;;;;;;;4.90;4.15;;;3.30;99.90;;;;;;5049871;28;20201;-73
2022/04/10 06:11:35;;;;;;;4.50;4.10;;;3.40;99.90;;;;;;5050155;28;20292;-74
2022/04/10 06:14:02;;;;;;;5.60;4.28;;;3.50;99.90;;;;;;5049622;28;20228;-74
2022/04/10 06:16:31;;;;;;;4.57;4.13;;;3.60;99.90;;;;;;5049820;28;20267;-74
2022/04/10 06:18:58;;;;;;;7.18;4.28;;;3.80;99.90;;;;;;5049248;28;20197;-74
2022/04/10 06:21:25;;;;;;;6.20;4.57;;;3.90;99.90;;;;;;5049489;28;20209;-73
2022/04/10 06:23:52;;;;;;;4.57;4.13;;;4.10;99.90;;;;;;5049726;28;20320;-74
2022/04/10 06:26:20;;;;;;;7.53;4.95;;;4.20;99.90;;;;;;5049499;28;20727;-73
2022/04/10 06:28:47;;;;;;;5.00;4.50;;;4.30;99.90;;;;;;5049027;28;20201;-73
2022/04/10 06:31:14;;;;;;;5.43;4.28;;;4.40;99.90;;;;;;5049854;28;20258;-73
2022/04/10 06:33:42;;;;;;;5.10;4.35;;;4.50;99.90;;;;;;5058551;28;20269;-74
2022/04/10 06:36:10;;;;;;;4.40;3.72;;;4.60;99.90;;;;;;5058555;28;20248;-73
2022/04/10 06:38:37;;;;;;;4.85;4.07;;;4.60;99.90;;;;;;5056382;28;20201;-73
2022/04/10 06:41:04;;;;;;;4.40;3.92;;;4.70;99.90;;;;;;5056349;28;20214;-72
2022/04/10 06:43:31;;;;;;;7.25;4.20;;;4.70;99.90;;;;;;5050016;28;20728;-72
2022/04/10 06:45:58;;;;;;;5.30;4.50;;;4.90;99.90;;;;;;5049063;28;20221;-73
2022/04/10 06:48:24;;;;;;;5.78;4.20;;;4.90;99.90;;;;;;5048778;28;20542;-73
2022/04/10 06:50:53;;;;;;;5.00;3.88;;;5.00;99.90;;;;;;5046359;28;20205;-73
2022/04/10 06:53:19;;;;;;;5.82;4.15;;;5.10;99.90;;;;;;5045476;28;20209;-73
2022/04/10 06:55:46;;;;;;;4.40;3.72;;;5.10;99.90;;;;;;5046516;28;20213;-73
2022/04/10 06:58:13;;;;;;;4.60;4.13;;;5.20;99.90;;;;;;5046932;28;20198;-73
2022/04/10 07:00:41;;;;;;;5.53;4.20;;;5.30;99.90;;;;;;5049502;28;20209;-72
2022/04/10 07:03:08;;;;;;;6.60;4.22;;;5.40;99.90;;;;;;5046916;28;20201;-74
2022/04/10 07:05:34;;;;;;;5.10;4.20;;;5.30;99.90;;;;;;5046743;28;20228;-73
2022/04/10 07:08:02;;;;;;;4.93;4.30;;;5.40;99.90;;;;;;5045980;28;20697;-73
2022/04/10 07:10:29;;;;;;;6.15;4.32;;;5.50;99.90;;;;;;5046654;28;20204;-73
2022/04/10 07:12:56;;;;;;;4.80;4.30;;;5.60;99.90;;;;;;5046799;28;20197;-73
2022/04/10 07:15:23;;;;;;;5.03;4.53;;;5.60;99.90;;;;;;5046654;28;20243;-72
2022/04/10 07:17:50;;;;;;;4.57;3.97;;;5.70;99.90;;;;;;5047532;28;20584;-73
2022/04/10 07:20:16;;;;;;;5.53;4.45;;;5.60;99.90;;;;;;5049369;28;20197;-73
2022/04/10 07:25:34;;;;;;;5.60;4.35;;;5.70;99.90;;;;;;5034787;28;20240;-72
2022/04/10 07:28:01;;;;;;;4.35;3.95;;;5.80;99.90;;;;;;5046106;28;20201;-73
2022/04/10 07:30:29;;;;;;;6.22;4.10;;;5.90;99.90;;;;;;5047226;28;20209;-72
2022/04/10 07:32:57;;;;;;;5.30;4.25;;;6.10;99.90;;;;;;5046271;28;20205;-72
2022/04/10 07:35:25;;;;;;;4.55;4.15;;;6.30;99.90;;;;;;5046284;28;20197;-72
2022/04/10 07:37:51;;;;;;;5.28;4.20;;;6.50;99.90;;;;;;5045333;28;20228;-73
2022/04/10 07:40:19;;;;;;;4.68;4.18;;;6.70;99.90;;;;;;5047106;28;20213;-73
2022/04/10 07:42:47;;;;;;;5.00;4.53;;;6.80;99.90;;;;;;5046184;28;20229;-73
2022/04/10 07:47:25;;;;;;;4.80;4.10;;;6.90;99.90;;;;;;5043423;28;20221;-73
2022/04/10 07:48:02;;;;;;;7.47;5.03;;;6.90;99.90;;;;;;5045345;28;20194;-74
2022/04/10 07:50:29;;;;;;;3.97;3.53;;;7.10;99.90;;;;;;5046211;28;20200;-73
2022/04/10 07:52:57;;;;;;;5.90;4.57;;;7.20;99.90;;;;;;5045905;28;20639;-72
2022/04/10 07:55:25;;;;;;;6.80;4.32;;;7.30;99.90;;;;;;5046460;28;20189;-72
2022/04/10 07:57:53;;;;;;;5.47;4.38;;;7.50;99.90;;;;;;5048234;28;20202;-73
2022/04/10 08:00:20;;;;;;;6.13;4.35;;;7.60;99.90;;;;;;5049101;28;20216;-73
2022/04/10 08:02:48;;;;;;;5.38;3.70;;;7.70;99.90;;;;;;5049367;28;20243;-73
2022/04/10 08:05:15;;;;;;;5.82;3.97;;;7.80;99.90;;;;;;5050067;28;20598;-73
2022/04/10 08:07:43;;;;;;;4.00;3.63;;;8.10;99.90;;;;;;5048561;28;20217;-72
2022/04/10 08:10:10;;;;;;;4.30;3.47;;;8.40;99.90;;;;;;5049599;28;20201;-72
2022/04/10 08:12:37;;;;;;;6.70;3.92;;;8.80;99.80;;;;;;5049267;28;20204;-72
2022/04/10 08:15:06;;;;;;;5.93;3.70;;;9.30;99.80;;;;;;5049268;28;20202;-72
2022/04/10 08:17:33;;;;;;;4.70;4.15;;;9.60;97.40;;;;;;5048762;28;20224;-73
2022/04/10 08:20:03;;;;;;;3.97;3.40;;;9.90;97.30;;;;;;5048961;28;20201;-72
2022/04/10 08:22:31;;;;;;;5.95;3.70;;;10.00;96.10;;;;;;5049181;28;20198;-72
2022/04/10 08:25:01;;;;;;;4.43;3.53;;;10.20;95.50;;;;;;5049187;28;20213;-73
2022/04/10 08:27:28;;;;;;;6.20;3.78;;;10.40;94.70;;;;;;5049046;28;20229;-73
2022/04/10 08:29:55;;;;;;;11.45;3.35;;;10.90;95.00;;;;;;5048856;28;20213;-73
2022/04/10 08:32:23;;;;;;;3.40;2.95;;;11.40;94.10;;;;;;5049423;28;20308;-73
2022/04/10 08:34:50;;;;;;;3.75;3.45;;;11.80;93.80;;;;;;5048538;28;20205;-72
2022/04/10 08:37:17;;;;;;;5.25;3.25;;;12.20;93.70;;;;;;5043461;28;20243;-72
2022/04/10 08:39:44;;;;;;;4.10;2.85;;;12.10;92.00;;;;;;5042859;28;20197;-72
2022/04/10 08:42:11;;;;;;;3.95;2.60;;;11.90;90.70;;;;;;5038385;28;20212;-74
2022/04/10 08:44:38;;;;;;;4.72;3.22;;;11.80;90.90;;;;;;5043448;28;20261;-73
2022/04/10 08:47:05;;;;;;;4.07;3.00;;;11.40;92.30;;;;;;5041265;28;20217;-72
2022/04/10 08:49:35;;;;;;;4.57;2.83;;;11.20;90.20;;;;;;5043575;28;20213;-72
2022/04/10 08:52:01;;;;;;;4.30;3.45;;;11.10;90.40;;;;;;5042866;28;20201;-73
2022/04/10 08:54:28;;;;;;;5.30;3.20;;;10.80;91.20;;;;;;5046567;28;20572;-73
2022/04/10 08:56:57;;;;;;;3.08;2.55;;;10.50;91.70;;;;;;5048204;28;20225;-73
2022/04/10 09:01:56;;;;;;;4.88;2.80;;;10.20;91.70;;;;;;5042831;28;20306;-69
2022/04/10 09:04:23;;;;;;;3.45;3.13;;;10.00;92.50;;;;;;5044856;28;20228;-69
2022/04/10 09:07:03;;;;;;;6.07;3.15;;;9.80;91.70;;;;;;5043172;28;20221;-69
2022/04/10 09:09:31;;;;;;;4.18;3.10;;;9.50;91.60;;;;;;5040825;28;20229;-69
2022/04/10 09:11:58;;;;;;;3.45;3.15;;;9.20;92.00;;;;;;5043861;28;20201;-69
2022/04/10 09:14:26;;;;;;;4.25;3.33;;;9.00;92.10;;;;;;5044024;28;21740;-69
2022/04/10 09:17:13;;;;;;;3.90;2.80;;;9.00;93.40;;;;;;5042580;28;20225;-69
2022/04/10 09:19:42;;;;;;;3.55;2.80;;;9.10;92.60;;;;;;5043722;28;20279;-69
2022/04/10 09:22:27;;;;;;;3.30;3.00;;;9.40;92.40;;;;;;5043257;28;20299;-69
2022/04/10 09:25:09;;;;;;;2.55;2.35;;;10.10;92.20;;;;;;5042460;28;20223;-69
2022/04/10 09:27:38;;;;;;;3.33;2.70;;;11.00;91.10;;;;;;5041636;28;20216;-69
2022/04/10 09:30:07;;;;;;;3.25;2.70;;;11.90;90.70;;;;;;5043531;28;20282;-69
2022/04/10 09:32:38;;;;;;;5.45;2.95;;;12.40;87.10;;;;;;5043579;28;20216;-69
2022/04/10 09:35:05;;;;;;;5.45;3.15;;;12.40;86.60;;;;;;5044311;28;20194;-69
2022/04/10 09:37:43;;;;;;;6.82;3.10;;;12.10;89.10;;;;;;5042201;28;20704;-68
2022/04/10 09:40:30;;;;;;;2.97;2.67;;;11.60;85.00;;;;;;5043603;28;20282;-69
2022/04/10 09:43:01;;;;;;;5.40;3.28;;;11.20;87.80;;;;;;5043796;28;20209;-68
2022/04/10 09:45:32;;;;;;;4.13;2.65;;;11.30;88.40;;;;;;5043687;28;20212;-68
2022/04/10 09:48:18;;;;;;;3.50;3.10;;;11.60;89.70;;;;;;5042792;28;20590;-71
2022/04/10 09:50:44;;;;;;;3.42;2.95;;;11.50;88.30;;;;;;5045769;28;20236;-73
2022/04/10 09:53:12;;;;;;;6.90;3.08;;;11.20;88.30;;;;;;5044542;28;20213;-72
2022/04/10 09:55:41;;;;;;;6.57;2.92;;;10.90;88.00;;;;;;5044557;28;20197;-72
2022/04/10 09:58:10;;;;;;;3.05;2.75;;;11.00;88.50;;;;;;5043556;28;20236;-72
2022/04/10 10:00:40;;;;;;;4.90;3.22;;;12.40;87.70;;;;;;5043877;28;20248;-72
2022/04/10 10:03:09;;;;;;;2.55;2.30;;;14.20;80.20;;;;;;5044999;28;20209;-73
2022/04/10 10:05:36;;;;;;;3.77;2.50;;;14.60;75.50;;;;;;5043129;28;20219;-72
2022/04/10 10:08:03;;;;;;;5.07;3.00;;;15.50;76.10;;;;;;5041847;28;20460;-71
2022/04/10 10:10:33;;;;;;;3.77;2.27;;;16.10;74.00;;;;;;5043624;28;20459;-70
2022/04/10 10:13:02;;;;;;;3.60;2.37;;;15.40;70.10;;;;;;5043247;28;20499;-72
2022/04/10 10:15:29;;;;;;;2.63;2.40;;;15.10;72.60;;;;;;5043516;28;20471;-70
2022/04/10 10:17:56;;;;;;;3.53;2.50;;;14.80;71.40;;;;;;5043245;28;20463;-67
2022/04/10 10:20:24;;;;;;;6.53;2.53;;;13.60;75.00;;;;;;5043787;28;20559;-67
2022/04/10 10:22:51;;;;;;;4.18;2.60;;;12.30;79.30;;;;;;5043843;28;20495;-70
2022/04/10 10:25:24;;;;;;;3.38;3.08;;;11.30;83.60;;;;;;5042979;28;20216;-70
2022/04/10 10:28:31;;;;;;;3.05;2.75;;;10.40;88.00;;;;;;5041954;28;20208;-70
2022/04/10 10:31:18;;;;;;;4.45;2.95;;;9.50;91.10;;;;;;5036980;28;20213;-69
2022/04/10 10:33:50;;;;;;;3.58;3.10;;;8.80;92.80;;;;;;5044179;28;20236;-70
2022/04/10 10:36:24;;;;;;;4.90;3.53;;;8.40;93.70;;;;;;5043425;28;20221;-70
2022/04/10 10:38:52;;;;;;;4.10;3.70;;;8.20;94.50;;;;;;5045077;28;20236;-70
2022/04/10 10:41:33;;;;;;;5.18;4.03;;;8.00;94.90;;;;;;5049788;28;20259;-70
2022/04/10 10:44:15;;;;;;;5.32;4.20;;;8.00;94.50;;;;;;5049479;28;20626;-70
2022/04/10 10:46:58;;;;;;;4.40;4.00;;;7.80;94.80;;;;;;5043273;28;20693;-70
2022/04/10 10:49:28;;;;;;;4.43;3.95;;;7.90;94.10;;;;;;5036594;28;20205;-70
2022/04/10 10:51:57;;;;;;;5.18;4.35;;;8.00;94.80;;;;;;5048935;28;20263;-70
2022/04/10 10:54:34;;;;;;;5.30;3.90;;;8.10;94.60;;;;;;5046466;28;20235;-69
2022/04/10 10:57:20;;;;;;;5.43;4.22;;;8.30;93.50;;;;;;5038362;28;20644;-69
2022/04/10 10:59:51;;;;;;;3.60;3.30;;;8.40;93.90;;;;;;5037138;28;20688;-70
2022/04/10 11:02:21;;;;;;;5.80;4.15;;;8.50;94.10;;;;;;5039978;28;20197;-69
2022/04/10 11:04:49;;;;;;;4.22;3.58;;;8.60;92.90;;;;;;5043665;28;20222;-69
2022/04/10 11:07:25;;;;;;;5.53;4.63;;;9.20;93.00;;;;;;5047622;28;20797;-69
2022/04/10 11:09:58;;;;;;;5.28;4.45;;;9.90;92.60;;;;;;5045257;28;20208;-68
2022/04/10 11:12:31;;;;;;;4.53;3.60;;;10.90;90.70;;;;;;5043451;28;20201;-70
2022/04/10 11:14:59;;;;;;;6.97;3.65;;;11.50;88.50;;;;;;5042605;28;20654;-68
2022/04/10 11:17:29;;;;;;;4.70;3.65;;;12.00;88.70;;;;;;5044034;28;20217;-68
2022/04/10 11:19:59;;;;;;;6.25;4.32;;;11.70;85.50;;;;;;5043166;28;20259;-68
2022/04/10 11:22:31;;;;;;;4.18;3.67;;;11.10;88.70;;;;;;5045004;28;20217;-70
2022/04/10 11:24:59;;;;;;;5.43;4.10;;;10.30;91.10;;;;;;5043206;28;20228;-69
2022/04/10 11:27:43;;;;;;;4.55;3.83;;;9.30;93.70;;;;;;5042881;28;20220;-69
2022/04/10 11:30:12;;;;;;;4.07;3.63;;;8.60;94.90;;;;;;5044570;28;20258;-69
2022/04/10 11:32:50;;;;;;;4.10;3.70;;;8.20;95.80;;;;;;5045519;28;20236;-68
2022/04/10 11:35:20;;;;;;;4.07;3.53;;;7.90;95.70;;;;;;5048160;28;20204;-69
2022/04/10 11:37:47;;;;;;;5.50;3.70;;;7.80;96.40;;;;;;5044741;28;20232;-68
2022/04/10 11:40:15;;;;;;;5.15;4.13;;;7.90;96.90;;;;;;5047310;28;20216;-69
2022/04/10 11:42:43;;;;;;;6.50;4.05;;;7.90;96.90;;;;;;5048013;28;20307;-69
2022/04/10 11:45:11;;;;;;;3.50;3.20;;;8.00;97.20;;;;;;5046845;28;20225;-68
2022/04/10 11:47:40;;;;;;;4.97;3.47;;;8.20;95.40;;;;;;5045507;28;20929;-69
2022/04/10 11:50:09;;;;;;;3.17;2.78;;;8.10;95.60;;;;;;5048894;28;20209;-68
2022/04/10 11:52:37;;;;;;;3.90;3.50;;;8.10;95.20;;;;;;5046560;28;20209;-68
2022/04/10 11:55:07;;;;;;;5.75;4.00;;;8.10;95.50;;;;;;5048385;28;20209;-69
2022/04/10 11:57:37;;;;;;;4.68;3.90;;;8.20;95.00;;;;;;5044296;28;20217;-69
2022/04/10 12:00:09;;;;;;;5.13;3.67;;;8.80;97.30;;;;;;5047833;28;20215;-69
2022/04/10 12:02:37;;;;;;;5.13;4.10;;;10.10;95.00;;;;;;5046282;28;20201;-69
2022/04/10 12:05:04;;;;;;;5.80;4.30;;;11.40;92.70;;;;;;5046840;28;20228;-69
2022/04/10 12:07:33;;;;;;;4.43;4.00;;;11.90;91.10;;;;;;5046163;28;20225;-69
2022/04/10 12:10:00;;;;;;;6.13;4.72;;;12.70;91.20;;;;;;5046886;28;20904;-69
2022/04/10 12:12:36;;;;;;;4.55;3.95;;;13.40;89.00;;;;;;5045212;28;20331;-69
2022/04/10 12:15:04;;;;;;;9.48;3.95;;;13.60;86.50;;;;;;5046075;28;20201;-70
2022/04/10 12:17:31;;;;;;;5.22;3.80;;;14.00;86.40;;;;;;5045545;28;20213;-70
2022/04/10 12:19:58;;;;;;;6.63;3.60;;;13.50;86.70;;;;;;5047586;28;20193;-70
2022/04/10 12:22:25;;;;;;;3.80;3.40;;;12.80;86.70;;;;;;5045122;28;20528;-70
2022/04/10 12:24:59;;;;;;;4.47;3.50;;;12.60;91.10;;;;;;5045616;28;20502;-70
2022/04/10 12:27:27;;;;;;;3.75;3.40;;;12.50;92.30;;;;;;5042195;28;20236;-70
2022/04/10 12:29:56;;;;;;;5.40;3.92;;;12.40;91.80;;;;;;5046708;28;20209;-70
2022/04/10 12:32:24;;;;;;;3.97;3.50;;;12.50;92.10;;;;;;5046906;28;20205;-70
2022/04/10 12:34:53;;;;;;;3.78;3.20;;;12.60;90.80;;;;;;5047670;28;20208;-70
2022/04/10 12:37:20;;;;;;;3.83;3.50;;;13.20;90.40;;;;;;5046482;28;20212;-71
2022/04/10 12:39:48;;;;;;;3.67;3.37;;;13.90;89.80;;;;;;5048026;28;21016;-70
2022/04/10 12:42:19;;;;;;;4.93;3.53;;;13.90;84.80;;;;;;5046792;28;20520;-70
2022/04/10 12:44:56;;;;;;;3.10;2.80;;;14.40;86.20;;;;;;5047887;28;20475;-70
2022/04/10 12:47:44;;;;;;;3.00;2.67;;;15.40;86.60;;;;;;5045932;28;20998;-70
2022/04/10 12:50:13;;;;;;;3.47;3.00;;;16.30;81.90;;;;;;5046098;28;20471;-70
2022/04/10 12:52:41;;;;;;;3.50;3.20;;;15.90;81.10;;;;;;5047960;28;20470;-70
2022/04/10 12:55:22;;;;;;;4.33;3.50;;;15.10;84.60;;;;;;5047350;28;21167;-70
2022/04/10 12:57:55;;;;;;;5.00;3.60;;;14.00;82.70;;;;;;5045423;28;20459;-70
2022/04/10 13:00:27;;;;;;;3.83;3.03;;;13.40;86.20;;;;;;5052080;28;20961;-70
2022/04/10 13:02:55;;;;;;;3.27;2.93;;;12.90;82.70;;;;;;5051769;28;20471;-70
2022/04/10 13:05:23;;;;;;;5.30;2.53;;;12.50;83.30;;;;;;5054399;28;20459;-70
2022/04/10 13:07:58;;;;;;;4.63;3.37;;;12.30;85.50;;;;;;5053607;28;20962;-69